Time;durP1;ratioP1;P1;durP2;ratioP2;P2;SDS_P1;SDS_P2;PMS_P1;PMS_P2;Temp;Humidity;BMP_temperature;BMP_pressure;BME280_temperature;BME280_humidity;BME280_pressure;Samples;Min_cycle;Max_cycle;Signal;HPM_P1;HPM_P2
2021/12/20 00:01:22;;;;;;;4.87;2.17;;;2.50;99.90;;;;;;5072765;27;20208;-47
2021/12/20 00:03:49;;;;;;;3.80;1.80;;;2.40;99.90;;;;;;5080436;27;20198;-47
2021/12/20 00:06:16;;;;;;;7.23;1.77;;;2.40;99.90;;;;;;5060658;28;20224;-47
2021/12/20 00:08:45;;;;;;;5.57;1.87;;;2.40;99.90;;;;;;5074746;28;20224;-47
2021/12/20 00:11:11;;;;;;;2.80;1.80;;;2.40;99.90;;;;;;5068236;28;20214;-48
2021/12/20 00:13:38;;;;;;;3.67;1.70;;;2.40;99.90;;;;;;5073648;27;20764;-54
2021/12/20 00:16:05;;;;;;;2.73;1.77;;;2.30;99.90;;;;;;5081906;28;20240;-47
2021/12/20 00:18:32;;;;;;;2.70;1.40;;;2.30;99.90;;;;;;5069365;28;20198;-48
2021/12/20 00:20:59;;;;;;;6.60;1.47;;;2.20;99.90;;;;;;5084595;28;20209;-48
2021/12/20 00:23:26;;;;;;;6.03;2.10;;;2.20;99.90;;;;;;5061031;28;20210;-47
2021/12/20 00:25:55;;;;;;;5.00;1.93;;;2.10;99.90;;;;;;5055462;28;20232;-47
2021/12/20 00:28:22;;;;;;;5.40;1.63;;;2.10;99.90;;;;;;5088016;28;20224;-47
2021/12/20 00:30:49;;;;;;;2.70;1.50;;;2.00;99.90;;;;;;5067831;28;20216;-47
2021/12/20 00:33:17;;;;;;;3.80;1.50;;;2.00;99.90;;;;;;5083268;28;20223;-47
2021/12/20 00:35:44;;;;;;;5.07;1.67;;;1.90;99.90;;;;;;5085367;28;20700;-47
2021/12/20 00:40:57;;;;;;;8.03;1.87;;;1.90;99.90;;;;;;5080659;28;20293;-47
2021/12/20 00:43:24;;;;;;;5.07;1.63;;;1.90;99.90;;;;;;5070011;28;20197;-47
2021/12/20 00:45:51;;;;;;;5.37;1.77;;;1.90;99.90;;;;;;5073590;28;20866;-47
2021/12/20 00:48:18;;;;;;;7.00;1.20;;;1.90;99.90;;;;;;5086247;27;20221;-48
2021/12/20 00:50:46;;;;;;;7.93;2.20;;;1.90;99.90;;;;;;5081139;28;20306;-47
2021/12/20 00:53:14;;;;;;;10.20;2.33;;;1.90;99.90;;;;;;5059694;28;20212;-48
2021/12/20 00:55:41;;;;;;;4.10;2.10;;;1.90;99.90;;;;;;5086746;28;20266;-47
2021/12/20 00:58:10;;;;;;;10.27;2.37;;;1.90;99.90;;;;;;5064787;28;20312;-48
2021/12/20 01:00:40;;;;;;;5.50;2.00;;;1.90;99.90;;;;;;5070787;28;20717;-47
2021/12/20 01:03:08;;;;;;;7.20;1.97;;;2.00;99.90;;;;;;5072120;28;20211;-47
2021/12/20 01:05:36;;;;;;;6.63;1.90;;;1.90;99.90;;;;;;5085776;28;20222;-48
2021/12/20 01:08:05;;;;;;;5.13;2.40;;;1.80;99.90;;;;;;5055310;28;20225;-47
2021/12/20 01:10:32;;;;;;;6.63;2.00;;;2.00;99.90;;;;;;5085998;28;20205;-47
2021/12/20 01:13:02;;;;;;;10.60;2.07;;;1.90;99.90;;;;;;5063669;28;20307;-47
2021/12/20 01:15:34;;;;;;;7.50;2.63;;;1.90;99.90;;;;;;5081450;28;20311;-48
2021/12/20 01:18:02;;;;;;;6.73;2.30;;;1.80;99.90;;;;;;5070471;28;20247;-47
2021/12/20 01:20:30;;;;;;;3.47;2.30;;;1.80;99.90;;;;;;5083449;28;20201;-47
2021/12/20 01:22:58;;;;;;;5.23;2.20;;;1.70;99.90;;;;;;5060613;28;20901;-47
2021/12/20 01:25:25;;;;;;;6.70;3.13;;;1.70;99.90;;;;;;5086781;28;20221;-47
2021/12/20 01:27:53;;;;;;;8.27;2.60;;;1.60;99.90;;;;;;5075920;28;20220;-47
2021/12/20 01:30:23;;;;;;;4.70;3.03;;;1.70;99.90;;;;;;5058025;28;20869;-47
2021/12/20 01:32:52;;;;;;;12.13;3.40;;;1.70;99.90;;;;;;5075912;28;20699;-47
2021/12/20 01:35:22;;;;;;;10.70;3.67;;;1.60;99.90;;;;;;5060963;28;20232;-48
2021/12/20 01:37:50;;;;;;;10.97;4.20;;;1.60;99.90;;;;;;5084423;28;20201;-47
2021/12/20 01:40:18;;;;;;;10.67;4.20;;;1.50;99.90;;;;;;5053234;28;20302;-47
2021/12/20 01:42:46;;;;;;;8.03;2.70;;;1.50;99.90;;;;;;5074370;28;20725;-47
2021/12/20 01:45:15;;;;;;;7.10;2.67;;;1.50;99.90;;;;;;5074867;28;20823;-47
2021/12/20 01:47:47;;;;;;;4.23;2.17;;;1.60;99.90;;;;;;5070399;28;20209;-47
2021/12/20 01:50:21;;;;;;;8.87;2.53;;;1.60;99.90;;;;;;5065725;28;20273;-47
2021/12/20 01:52:49;;;;;;;5.40;2.03;;;1.60;99.90;;;;;;5078622;28;20261;-47
2021/12/20 01:55:18;;;;;;;5.50;1.97;;;1.50;99.90;;;;;;5064561;28;20223;-47
2021/12/20 01:57:45;;;;;;;4.70;2.60;;;1.40;99.90;;;;;;5080771;28;20210;-46
2021/12/20 02:00:15;;;;;;;5.77;2.53;;;1.40;99.90;;;;;;5058069;28;20660;-48
2021/12/20 02:02:43;;;;;;;8.93;3.00;;;1.40;99.90;;;;;;5080318;28;20205;-47
2021/12/20 02:05:17;;;;;;;7.97;2.37;;;1.40;99.90;;;;;;5066476;27;20232;-49
2021/12/20 02:07:56;;;;;;;6.57;2.40;;;1.40;99.90;;;;;;5078159;28;20211;-46
2021/12/20 02:10:23;;;;;;;4.63;2.20;;;1.40;99.90;;;;;;5052597;28;20211;-46
2021/12/20 02:12:50;;;;;;;3.67;1.83;;;1.40;99.90;;;;;;5080006;28;20291;-46
2021/12/20 02:15:18;;;;;;;3.20;1.60;;;1.30;99.90;;;;;;5060467;28;20231;-47
2021/12/20 02:17:45;;;;;;;4.70;1.80;;;1.30;99.90;;;;;;5081568;28;20887;-47
2021/12/20 02:20:25;;;;;;;3.13;1.30;;;1.30;99.90;;;;;;5071654;28;20621;-47
2021/12/20 02:22:55;;;;;;;2.63;1.63;;;1.20;99.90;;;;;;5072290;28;20211;-46
2021/12/20 02:25:22;;;;;;;1.67;1.23;;;1.30;99.90;;;;;;5063530;28;20239;-45
2021/12/20 02:27:49;;;;;;;1.80;1.30;;;1.30;99.90;;;;;;5069379;28;20235;-46
2021/12/20 02:30:38;;;;;;;2.23;1.50;;;1.30;99.90;;;;;;5057369;28;20213;-46
2021/12/20 02:38:35;;;;;;;2.03;1.53;;;1.20;99.90;;;;;;5077591;28;20244;-46
2021/12/20 02:41:05;;;;;;;2.00;1.27;;;1.20;99.90;;;;;;5064022;28;20211;-46
2021/12/20 02:43:35;;;;;;;1.20;1.10;;;1.20;99.90;;;;;;5085316;28;20196;-46
2021/12/20 02:46:06;;;;;;;1.80;1.23;;;1.10;99.90;;;;;;5063215;28;20218;-46
2021/12/20 02:48:32;;;;;;;3.93;1.30;;;1.00;99.90;;;;;;5078851;28;20702;-46
2021/12/20 02:51:01;;;;;;;1.13;1.03;;;1.00;99.90;;;;;;5047443;28;20219;-45
2021/12/20 02:53:28;;;;;;;1.40;1.30;;;1.00;99.90;;;;;;5080789;28;20196;-46
2021/12/20 02:55:54;;;;;;;1.60;1.30;;;1.10;99.90;;;;;;5063377;28;20246;-46
2021/12/20 02:58:21;;;;;;;1.03;0.93;;;1.10;99.90;;;;;;5070554;28;20307;-45
2021/12/20 03:00:48;;;;;;;1.80;1.33;;;1.00;99.90;;;;;;5060276;28;20196;-45
2021/12/20 03:03:15;;;;;;;1.40;1.27;;;1.10;99.90;;;;;;5073652;28;20213;-46
2021/12/20 03:05:42;;;;;;;4.03;1.60;;;1.00;99.90;;;;;;5083598;28;20752;-45
2021/12/20 03:08:11;;;;;;;1.37;1.27;;;0.80;99.90;;;;;;5061061;28;20193;-47
2021/12/20 03:10:41;;;;;;;3.87;1.80;;;0.70;99.90;;;;;;5079787;28;20210;-45
2021/12/20 03:13:09;;;;;;;2.47;2.00;;;0.70;99.90;;;;;;5061610;28;20246;-45
2021/12/20 03:15:36;;;;;;;1.43;1.33;;;0.60;99.90;;;;;;5079277;28;20281;-46
2021/12/20 03:18:03;;;;;;;2.57;1.67;;;0.70;99.90;;;;;;5065596;28;20493;-46
2021/12/20 03:20:30;;;;;;;1.63;1.50;;;0.50;99.90;;;;;;5074266;28;20315;-45
2021/12/20 03:22:57;;;;;;;2.20;1.67;;;0.60;99.90;;;;;;5070865;28;20215;-46
2021/12/20 03:25:25;;;;;;;1.97;1.67;;;0.70;99.90;;;;;;5069899;28;20229;-46
2021/12/20 03:27:53;;;;;;;2.20;1.87;;;0.70;99.90;;;;;;5075450;28;20196;-45
2021/12/20 03:30:21;;;;;;;2.10;1.90;;;0.70;99.90;;;;;;5077066;28;20219;-46
2021/12/20 03:32:48;;;;;;;3.10;2.03;;;0.70;99.90;;;;;;5069235;28;20548;-45
2021/12/20 03:35:15;;;;;;;2.67;2.07;;;0.60;99.90;;;;;;5084389;28;20805;-45
2021/12/20 03:37:43;;;;;;;2.20;2.00;;;0.70;99.90;;;;;;5078292;28;20210;-45
2021/12/20 03:40:12;;;;;;;3.63;2.17;;;0.70;99.90;;;;;;5071262;28;20873;-46
2021/12/20 03:42:42;;;;;;;2.73;2.10;;;0.70;99.90;;;;;;5081220;28;20210;-44
2021/12/20 03:45:13;;;;;;;2.10;1.83;;;0.60;99.90;;;;;;5053573;28;20735;-45
2021/12/20 03:47:40;;;;;;;5.50;1.77;;;0.50;99.90;;;;;;5060228;28;20264;-46
2021/12/20 03:50:07;;;;;;;2.30;2.10;;;0.50;99.90;;;;;;5079880;28;20236;-46
2021/12/20 03:52:38;;;;;;;2.23;1.70;;;0.40;99.90;;;;;;5073667;28;20201;-46
2021/12/20 03:55:05;;;;;;;2.40;2.20;;;0.40;99.90;;;;;;5069423;28;20221;-45
2021/12/20 03:57:32;;;;;;;5.33;2.07;;;0.50;99.90;;;;;;5070438;28;20207;-45
2021/12/20 04:00:02;;;;;;;2.40;2.00;;;0.40;99.90;;;;;;5053318;28;20207;-45
2021/12/20 04:02:36;;;;;;;3.63;2.30;;;0.20;99.90;;;;;;5061643;28;20552;-46
2021/12/20 04:05:03;;;;;;;3.03;2.20;;;0.20;99.90;;;;;;5075631;28;20595;-45
2021/12/20 04:07:30;;;;;;;2.87;1.97;;;0.20;99.90;;;;;;5067648;28;20243;-47
2021/12/20 04:09:57;;;;;;;5.00;2.43;;;0.30;99.90;;;;;;5068683;28;20225;-45
2021/12/20 04:12:24;;;;;;;4.43;2.20;;;0.30;99.90;;;;;;5070861;28;20219;-46
2021/12/20 04:14:51;;;;;;;2.97;2.00;;;0.30;99.90;;;;;;5062749;28;20228;-44
2021/12/20 04:17:20;;;;;;;5.87;2.30;;;0.30;99.90;;;;;;5081306;28;20205;-44
2021/12/20 04:19:47;;;;;;;2.87;2.00;;;0.40;99.90;;;;;;5061504;28;20253;-48
2021/12/20 04:22:15;;;;;;;3.33;1.87;;;0.40;99.90;;;;;;5062014;28;20990;-45
2021/12/20 04:24:43;;;;;;;5.50;2.50;;;0.40;99.90;;;;;;5072423;28;20304;-45
2021/12/20 04:27:10;;;;;;;5.37;2.00;;;0.40;99.90;;;;;;5064514;28;20212;-44
2021/12/20 04:29:36;;;;;;;4.83;2.47;;;0.30;99.90;;;;;;5069808;27;20221;-45
2021/12/20 04:32:04;;;;;;;8.60;2.43;;;0.30;99.90;;;;;;5047247;28;20217;-45
2021/12/20 04:34:32;;;;;;;2.43;2.10;;;0.30;99.90;;;;;;5046590;28;20720;-46
2021/12/20 04:36:59;;;;;;;4.93;2.27;;;0.30;99.90;;;;;;5073442;28;20291;-47
2021/12/20 04:39:30;;;;;;;3.90;2.40;;;0.30;99.90;;;;;;5068692;28;20205;-46
2021/12/20 04:41:57;;;;;;;3.97;2.30;;;0.30;99.90;;;;;;5069564;28;20215;-45
2021/12/20 04:44:24;;;;;;;5.50;2.33;;;0.30;99.90;;;;;;5076089;28;20223;-45
2021/12/20 04:46:52;;;;;;;4.27;2.90;;;0.40;99.90;;;;;;5065698;28;20220;-45
2021/12/20 04:49:19;;;;;;;3.33;2.37;;;0.40;99.90;;;;;;5054081;28;20227;-46
2021/12/20 04:51:48;;;;;;;4.10;2.40;;;0.40;99.90;;;;;;5071906;28;20209;-46
2021/12/20 04:54:15;;;;;;;5.57;2.60;;;0.40;99.90;;;;;;5063329;28;20312;-46
2021/12/20 04:56:41;;;;;;;2.60;2.33;;;0.40;99.90;;;;;;5078809;28;20206;-46
2021/12/20 04:59:08;;;;;;;2.33;1.63;;;0.40;99.90;;;;;;5078659;28;20197;-46
2021/12/20 05:01:35;;;;;;;3.47;2.00;;;0.30;99.90;;;;;;5070641;28;20201;-46
2021/12/20 05:04:02;;;;;;;2.93;1.83;;;0.20;99.90;;;;;;5048298;28;20233;-46
2021/12/20 05:06:31;;;;;;;5.00;2.53;;;0.20;99.90;;;;;;5046835;28;22015;-46
2021/12/20 05:09:01;;;;;;;2.60;2.10;;;0.20;99.90;;;;;;5013880;28;1101881;-47
2021/12/20 05:11:29;;;;;;;2.67;2.17;;;0.20;99.90;;;;;;5057524;28;20227;-46
2021/12/20 05:13:56;;;;;;;2.20;2.00;;;0.20;99.90;;;;;;5065959;28;20226;-46
2021/12/20 05:16:23;;;;;;;3.20;2.50;;;0.40;99.90;;;;;;5075004;28;20210;-47
2021/12/20 05:18:50;;;;;;;7.07;2.70;;;0.40;99.90;;;;;;5065993;28;20212;-46
2021/12/20 05:21:17;;;;;;;6.03;2.47;;;0.40;99.90;;;;;;5059928;28;20714;-46
2021/12/20 05:23:44;;;;;;;6.63;2.83;;;0.30;99.90;;;;;;5064829;28;20203;-46
2021/12/20 05:26:12;;;;;;;3.80;2.43;;;0.40;99.90;;;;;;5055711;28;20224;-46
2021/12/20 05:28:39;;;;;;;3.70;2.70;;;0.30;99.90;;;;;;5070177;28;20210;-46
2021/12/20 05:31:06;;;;;;;3.67;2.40;;;0.20;99.90;;;;;;5053304;28;20200;-46
2021/12/20 05:33:34;;;;;;;3.87;2.67;;;0.20;99.90;;;;;;5046301;28;20216;-47
2021/12/20 05:36:01;;;;;;;4.70;2.90;;;0.30;99.90;;;;;;5056715;28;20212;-46
2021/12/20 05:38:28;;;;;;;4.90;2.60;;;0.30;99.90;;;;;;5054395;28;20251;-46
2021/12/20 05:40:55;;;;;;;4.40;2.60;;;0.20;99.90;;;;;;5055588;28;21425;-47
2021/12/20 05:43:23;;;;;;;4.40;3.00;;;0.20;99.90;;;;;;5071089;28;20213;-46
2021/12/20 05:45:50;;;;;;;4.40;2.60;;;0.20;99.90;;;;;;5069132;28;20225;-51
2021/12/20 05:48:17;;;;;;;3.93;2.70;;;0.20;99.90;;;;;;5060290;28;20205;-46
2021/12/20 05:50:44;;;;;;;2.50;2.07;;;0.20;99.90;;;;;;5068481;28;20222;-46
2021/12/20 05:53:11;;;;;;;2.60;2.00;;;0.20;99.90;;;;;;5037684;28;20199;-52
2021/12/20 05:55:38;;;;;;;2.77;1.93;;;0.10;99.90;;;;;;5076534;28;20239;-46
2021/12/20 05:58:04;;;;;;;4.23;1.90;;;0.10;99.90;;;;;;5059090;28;20214;-46
2021/12/20 06:00:33;;;;;;;2.30;1.90;;;0.00;99.90;;;;;;5080570;28;20708;-56
2021/12/20 06:02:59;;;;;;;2.37;2.07;;;-0.10;99.90;;;;;;5075190;28;20209;-46
2021/12/20 06:05:26;;;;;;;3.17;2.47;;;0.00;99.90;;;;;;5057748;28;20221;-46
2021/12/20 06:07:53;;;;;;;2.50;1.83;;;0.10;99.90;;;;;;5061594;28;20204;-46
2021/12/20 06:10:20;;;;;;;4.93;2.20;;;0.10;99.90;;;;;;5063212;28;20228;-46
2021/12/20 06:12:48;;;;;;;3.40;2.27;;;0.10;99.90;;;;;;5057877;28;20207;-48
2021/12/20 06:15:15;;;;;;;3.63;2.43;;;0.10;99.90;;;;;;5072660;28;20315;-49
2021/12/20 06:17:43;;;;;;;2.87;2.23;;;0.10;99.90;;;;;;5081572;28;20201;-47
2021/12/20 06:20:12;;;;;;;2.50;2.03;;;0.10;99.90;;;;;;5061535;27;21382;-47
2021/12/20 06:22:40;;;;;;;2.60;2.07;;;0.10;99.90;;;;;;5077088;28;20209;-48
2021/12/20 06:25:08;;;;;;;2.50;1.93;;;0.00;99.90;;;;;;5050919;28;20225;-55
2021/12/20 06:27:34;;;;;;;3.80;2.50;;;0.00;99.90;;;;;;5077920;28;20215;-48
2021/12/20 06:30:01;;;;;;;4.03;2.17;;;0.00;99.90;;;;;;5073668;28;20982;-48
2021/12/20 06:32:29;;;;;;;3.93;2.50;;;-0.10;99.90;;;;;;5084127;28;20220;-49
2021/12/20 06:34:58;;;;;;;5.27;2.90;;;-0.10;99.90;;;;;;5060418;28;20946;-52
2021/12/20 06:37:25;;;;;;;6.43;2.90;;;0.00;99.90;;;;;;5080564;28;20204;-53
2021/12/20 06:39:52;;;;;;;3.97;2.50;;;0.00;99.90;;;;;;5048922;28;20205;-48
2021/12/20 06:42:19;;;;;;;4.83;2.97;;;0.00;99.90;;;;;;5065849;28;20288;-48
2021/12/20 06:44:46;;;;;;;5.50;2.80;;;0.10;99.90;;;;;;5056874;28;20219;-48
2021/12/20 06:47:14;;;;;;;3.87;3.13;;;0.00;99.90;;;;;;5080139;28;20268;-48
2021/12/20 06:49:40;;;;;;;5.17;3.10;;;0.00;99.90;;;;;;5075861;28;20227;-48
2021/12/20 06:52:09;;;;;;;3.40;2.60;;;0.10;99.90;;;;;;5070117;28;20205;-47
2021/12/20 06:54:36;;;;;;;7.00;3.20;;;0.00;99.90;;;;;;5063360;28;20317;-46
2021/12/20 06:57:03;;;;;;;6.73;2.77;;;0.00;99.90;;;;;;5064370;28;20203;-48
2021/12/20 06:59:31;;;;;;;4.50;2.93;;;-0.10;99.90;;;;;;5064377;28;20872;-48
2021/12/20 07:01:58;;;;;;;3.53;2.57;;;-0.20;99.90;;;;;;5068840;28;21831;-47
2021/12/20 07:04:26;;;;;;;3.13;2.43;;;-0.30;99.90;;;;;;5077360;28;20737;-46
2021/12/20 07:06:53;;;;;;;4.57;2.50;;;-0.30;99.90;;;;;;5059945;28;20205;-48
2021/12/20 07:09:22;;;;;;;4.50;2.27;;;-0.30;99.90;;;;;;5087560;28;20295;-48
2021/12/20 07:11:48;;;;;;;5.50;2.90;;;-0.40;99.90;;;;;;5057377;28;20205;-48
2021/12/20 07:14:15;;;;;;;10.77;3.50;;;-0.30;99.90;;;;;;5060122;28;20254;-48
2021/12/20 07:16:42;;;;;;;6.30;2.63;;;-0.30;99.90;;;;;;5074109;28;20200;-48
2021/12/20 07:19:09;;;;;;;5.47;2.97;;;-0.20;99.90;;;;;;5094636;28;20201;-47
2021/12/20 07:21:36;;;;;;;10.90;3.17;;;-0.20;99.90;;;;;;5054246;28;20214;-48
2021/12/20 07:24:03;;;;;;;5.73;3.03;;;-0.20;99.90;;;;;;5079819;28;20241;-48
2021/12/20 07:26:32;;;;;;;5.73;2.87;;;-0.10;99.90;;;;;;5057775;28;20223;-48
2021/12/20 07:28:58;;;;;;;3.73;2.80;;;-0.20;99.90;;;;;;5083323;28;20211;-48
2021/12/20 07:31:26;;;;;;;4.30;2.50;;;-0.30;99.90;;;;;;5061185;28;20208;-48
2021/12/20 07:33:52;;;;;;;6.80;3.10;;;-0.30;99.90;;;;;;5081603;28;20198;-48
2021/12/20 07:36:21;;;;;;;6.07;3.10;;;-0.30;99.90;;;;;;5075950;28;20206;-48
2021/12/20 07:38:49;;;;;;;13.43;3.43;;;-0.30;99.90;;;;;;5072568;28;20340;-47
2021/12/20 07:41:19;;;;;;;5.50;3.27;;;-0.20;99.90;;;;;;5068121;28;20264;-48
2021/12/20 07:43:47;;;;;;;6.37;3.20;;;0.00;99.90;;;;;;5074912;28;20207;-48
2021/12/20 07:46:14;;;;;;;6.47;3.23;;;0.10;99.90;;;;;;5081837;28;20203;-48
2021/12/20 07:48:42;;;;;;;6.63;3.73;;;0.10;99.90;;;;;;5068367;28;20212;-48
2021/12/20 07:51:08;;;;;;;5.53;3.23;;;0.00;99.90;;;;;;5088690;28;20228;-47
2021/12/20 07:53:35;;;;;;;5.73;2.93;;;0.00;99.90;;;;;;5048664;28;20888;-48
2021/12/20 07:56:04;;;;;;;3.67;2.67;;;0.00;99.90;;;;;;5067333;28;20818;-53
2021/12/20 07:58:31;;;;;;;5.10;2.83;;;0.00;99.90;;;;;;5066483;28;20602;-52
2021/12/20 08:01:01;;;;;;;4.73;2.80;;;-0.10;99.90;;;;;;5065837;28;20201;-48
2021/12/20 08:03:28;;;;;;;5.40;3.23;;;-0.10;99.90;;;;;;5074147;28;20242;-48
2021/12/20 08:05:55;;;;;;;8.10;3.47;;;-0.20;99.90;;;;;;5083568;28;20223;-48
2021/12/20 08:08:22;;;;;;;8.90;3.27;;;-0.20;99.90;;;;;;5067724;27;20266;-47
2021/12/20 08:10:49;;;;;;;13.20;4.00;;;-0.20;99.90;;;;;;5084777;28;20226;-48
2021/12/20 08:13:16;;;;;;;5.03;3.00;;;-0.20;99.90;;;;;;5057768;28;20208;-47
2021/12/20 08:15:43;;;;;;;9.80;3.10;;;-0.20;99.90;;;;;;5082954;28;20302;-48
2021/12/20 08:18:12;;;;;;;10.60;3.30;;;-0.10;99.90;;;;;;5074169;28;20576;-47
2021/12/20 08:20:40;;;;;;;10.30;2.87;;;0.00;99.90;;;;;;5091060;28;20187;-48
2021/12/20 08:23:07;;;;;;;8.60;3.23;;;0.10;99.90;;;;;;5065938;27;20228;-48
2021/12/20 08:25:35;;;;;;;7.23;3.50;;;0.10;99.90;;;;;;5069678;28;20286;-47
2021/12/20 08:28:03;;;;;;;6.17;3.23;;;0.10;99.90;;;;;;5043709;28;20799;-48
2021/12/20 08:30:30;;;;;;;7.63;3.03;;;0.20;99.90;;;;;;5078857;28;20222;-48
2021/12/20 08:32:57;;;;;;;5.13;3.40;;;0.10;99.90;;;;;;5068498;28;20241;-47
2021/12/20 08:35:25;;;;;;;7.30;3.57;;;0.10;99.90;;;;;;5075663;27;20225;-47
2021/12/20 08:37:53;;;;;;;10.53;3.17;;;0.00;99.90;;;;;;5078477;28;20214;-47
2021/12/20 08:40:22;;;;;;;7.73;2.87;;;0.10;99.90;;;;;;5067487;27;20295;-47
2021/12/20 08:42:49;;;;;;;6.13;3.17;;;0.10;99.90;;;;;;5060644;28;20231;-46
2021/12/20 08:45:18;;;;;;;8.27;3.23;;;0.10;99.90;;;;;;5080506;28;20224;-48
2021/12/20 08:47:45;;;;;;;6.37;3.40;;;0.10;99.90;;;;;;5065734;27;20229;-48
2021/12/20 08:50:15;;;;;;;5.53;3.03;;;0.10;99.90;;;;;;5079395;27;20229;-47
2021/12/20 08:52:44;;;;;;;9.57;3.13;;;0.10;99.90;;;;;;5061830;27;20640;-47
2021/12/20 08:55:12;;;;;;;5.33;2.77;;;0.10;99.90;;;;;;5056895;28;20221;-48
2021/12/20 08:57:40;;;;;;;7.67;3.50;;;0.20;99.90;;;;;;5066536;28;20329;-48
2021/12/20 09:00:11;;;;;;;6.47;3.17;;;0.20;99.90;;;;;;5056897;28;20232;-48
2021/12/20 09:02:38;;;;;;;5.77;3.13;;;0.20;99.90;;;;;;5081748;28;20194;-47
2021/12/20 09:05:05;;;;;;;9.13;3.57;;;0.30;99.90;;;;;;5050826;28;20237;-47
2021/12/20 09:07:33;;;;;;;4.97;3.60;;;0.40;99.90;;;;;;5074330;27;20213;-47
2021/12/20 09:10:01;;;;;;;8.70;4.73;;;0.40;99.90;;;;;;5058391;27;20230;-48
2021/12/20 09:12:28;;;;;;;10.27;4.83;;;0.30;99.90;;;;;;5087093;28;20192;-47
2021/12/20 09:14:55;;;;;;;6.27;3.97;;;0.30;99.90;;;;;;5054339;28;20239;-48
2021/12/20 09:17:22;;;;;;;8.23;4.50;;;0.40;99.90;;;;;;5084156;28;20718;-47
2021/12/20 09:19:51;;;;;;;6.03;3.90;;;0.40;99.90;;;;;;5068641;28;20790;-48
2021/12/20 09:22:18;;;;;;;10.47;4.60;;;0.50;99.90;;;;;;5068633;27;20334;-48
2021/12/20 09:24:45;;;;;;;9.37;5.03;;;0.60;99.90;;;;;;5073803;27;20246;-47
2021/12/20 09:27:13;;;;;;;8.00;4.27;;;0.60;99.90;;;;;;5069747;27;20202;-47
2021/12/20 09:29:41;;;;;;;7.33;3.70;;;0.60;99.90;;;;;;5055735;27;20633;-47
2021/12/20 09:32:08;;;;;;;9.50;4.60;;;0.70;99.90;;;;;;5069882;28;20242;-47
2021/12/20 09:34:36;;;;;;;9.73;4.07;;;0.70;99.90;;;;;;5078783;28;20229;-47
2021/12/20 09:37:06;;;;;;;8.87;3.53;;;0.60;99.90;;;;;;5046666;28;20227;-47
2021/12/20 09:39:37;;;;;;;8.50;3.37;;;0.70;99.90;;;;;;5081252;28;20200;-47
2021/12/20 09:42:05;;;;;;;6.23;3.33;;;0.80;99.90;;;;;;5059378;28;20224;-47
2021/12/20 09:44:34;;;;;;;8.23;4.00;;;0.90;99.90;;;;;;5077243;27;20224;-48
2021/12/20 09:47:03;;;;;;;8.53;3.47;;;0.90;99.90;;;;;;5059228;28;20222;-48
2021/12/20 09:49:31;;;;;;;6.90;3.70;;;0.90;99.90;;;;;;5062374;27;20744;-52
2021/12/20 09:51:58;;;;;;;11.00;3.97;;;0.80;99.90;;;;;;5082797;27;20250;-48
2021/12/20 09:54:26;;;;;;;6.03;3.37;;;0.90;99.90;;;;;;5080866;28;20233;-49
2021/12/20 09:56:54;;;;;;;7.77;3.17;;;1.00;99.90;;;;;;5068159;28;20231;-48
2021/12/20 09:59:24;;;;;;;10.67;4.17;;;1.00;99.90;;;;;;5066435;28;20236;-48
2021/12/20 10:01:53;;;;;;;6.20;3.40;;;1.10;99.90;;;;;;5063558;28;20204;-47
2021/12/20 10:04:22;;;;;;;9.13;3.37;;;1.20;99.90;;;;;;5066640;28;20281;-50
2021/12/20 10:06:52;;;;;;;5.53;3.20;;;1.30;99.90;;;;;;5074897;28;20220;-47
2021/12/20 10:09:25;;;;;;;6.83;3.50;;;1.40;99.90;;;;;;5073818;28;21272;-48
2021/12/20 10:12:11;;;;;;;7.83;3.50;;;1.50;99.90;;;;;;5072581;27;20878;-48
2021/12/20 10:15:01;;;;;;;11.00;3.87;;;1.50;99.90;;;;;;5059675;28;20945;-48
2021/12/20 10:17:31;;;;;;;10.83;3.80;;;1.60;99.90;;;;;;5059755;28;20227;-48
2021/12/20 10:20:14;;;;;;;19.40;3.77;;;1.60;99.90;;;;;;5072943;27;20692;-47
2021/12/20 10:22:41;;;;;;;8.80;3.47;;;1.70;99.90;;;;;;5076694;28;20208;-47
2021/12/20 10:25:22;;;;;;;11.03;3.47;;;1.70;99.90;;;;;;5059287;28;20225;-47
2021/12/20 10:27:50;;;;;;;9.00;3.67;;;1.80;99.90;;;;;;5066802;28;20234;-48
2021/12/20 10:30:28;;;;;;;11.33;4.03;;;1.90;99.90;;;;;;5047501;28;20227;-47
2021/12/20 10:32:57;;;;;;;14.97;3.80;;;2.00;99.90;;;;;;5078796;28;20963;-48
2021/12/20 10:35:37;;;;;;;11.50;3.80;;;2.00;99.90;;;;;;5065785;28;20914;-47
2021/12/20 10:38:09;;;;;;;17.27;3.93;;;2.00;99.90;;;;;;5073561;28;20238;-47
2021/12/20 10:40:48;;;;;;;11.50;3.43;;;2.10;99.90;;;;;;5059981;28;20368;-48
2021/12/20 10:43:19;;;;;;;6.70;3.63;;;2.20;99.90;;;;;;5058667;28;20239;-48
2021/12/20 10:45:46;;;;;;;17.53;4.23;;;2.30;99.90;;;;;;5041135;28;20232;-48
2021/12/20 10:48:14;;;;;;;13.70;3.80;;;2.30;99.90;;;;;;5048442;28;20229;-48
2021/12/20 10:50:43;;;;;;;12.47;3.80;;;2.40;99.90;;;;;;5058600;28;20409;-48
2021/12/20 10:53:17;;;;;;;11.43;3.23;;;2.50;99.90;;;;;;5061755;28;20201;-47
2021/12/20 10:55:46;;;;;;;9.83;2.73;;;2.50;99.90;;;;;;5051477;28;20889;-47
2021/12/20 10:58:33;;;;;;;9.53;3.50;;;2.60;99.90;;;;;;5075863;28;20210;-48
2021/12/20 11:01:18;;;;;;;11.80;4.20;;;2.70;99.90;;;;;;5064699;28;20211;-48
2021/12/20 11:03:58;;;;;;;10.73;3.20;;;2.70;99.90;;;;;;5061083;28;20264;-48
2021/12/20 11:06:41;;;;;;;8.60;3.20;;;2.90;99.90;;;;;;5068020;28;20218;-48
2021/12/20 11:09:15;;;;;;;11.13;3.80;;;3.00;99.90;;;;;;5064673;28;20406;-47
2021/12/20 11:11:48;;;;;;;8.43;3.30;;;3.10;99.90;;;;;;5070917;28;20224;-48
2021/12/20 11:14:17;;;;;;;9.40;3.50;;;3.10;99.90;;;;;;5064113;28;20297;-47
2021/12/20 11:16:46;;;;;;;9.60;3.53;;;3.10;99.90;;;;;;5055936;28;20228;-47
2021/12/20 11:19:25;;;;;;;12.10;3.13;;;3.20;99.90;;;;;;5070138;28;20233;-48
2021/12/20 11:21:58;;;;;;;10.30;3.40;;;3.20;99.90;;;;;;5072094;28;20211;-48
2021/12/20 11:24:29;;;;;;;9.63;3.70;;;3.30;99.90;;;;;;5043248;28;20218;-47
2021/12/20 11:26:57;;;;;;;13.73;3.93;;;3.30;99.90;;;;;;5070573;28;20318;-48
2021/12/20 11:29:24;;;;;;;12.97;3.40;;;3.40;99.90;;;;;;5061104;28;20225;-47
2021/12/20 11:31:52;;;;;;;7.57;3.47;;;3.40;99.90;;;;;;5062929;28;20224;-48
2021/12/20 11:34:21;;;;;;;9.10;2.87;;;3.50;99.90;;;;;;5044782;28;20230;-49
2021/12/20 11:36:49;;;;;;;16.13;3.30;;;3.50;99.90;;;;;;5048035;28;20222;-48
2021/12/20 11:39:16;;;;;;;13.37;3.30;;;3.60;99.90;;;;;;5062644;28;20218;-48
2021/12/20 11:41:43;;;;;;;14.83;3.03;;;3.60;99.90;;;;;;5070900;27;20212;-48
2021/12/20 11:44:15;;;;;;;11.93;3.17;;;3.60;99.90;;;;;;5069000;28;20227;-47
2021/12/20 11:47:02;;;;;;;7.57;3.17;;;3.60;99.90;;;;;;5071738;28;20199;-47
2021/12/20 11:49:32;;;;;;;12.83;3.40;;;3.70;99.90;;;;;;5059524;28;20211;-47
2021/12/20 11:52:01;;;;;;;12.50;2.70;;;3.70;99.90;;;;;;5074453;28;20230;-48
2021/12/20 11:54:37;;;;;;;4.13;2.27;;;3.80;99.90;;;;;;5067601;28;20234;-48
2021/12/20 11:57:05;;;;;;;14.13;3.43;;;3.80;99.90;;;;;;5073231;28;20577;-46
2021/12/20 11:59:53;;;;;;;7.53;2.43;;;3.80;99.90;;;;;;5067352;28;20661;-48
2021/12/20 12:02:22;;;;;;;9.03;3.07;;;3.90;99.90;;;;;;5081122;28;20210;-48
2021/12/20 12:04:59;;;;;;;11.63;2.73;;;3.90;99.90;;;;;;5065449;28;20236;-48
2021/12/20 12:07:28;;;;;;;10.80;2.50;;;4.00;99.90;;;;;;5082729;27;20188;-47
2021/12/20 12:10:04;;;;;;;6.77;2.27;;;4.00;99.90;;;;;;5079287;28;20621;-48
2021/12/20 12:12:33;;;;;;;9.40;2.90;;;4.00;99.90;;;;;;5067125;28;20223;-48
2021/12/20 12:15:06;;;;;;;13.57;2.40;;;4.10;99.90;;;;;;5064370;28;20629;-48
2021/12/20 12:17:57;;;;;;;8.77;2.50;;;4.10;99.90;;;;;;5077443;28;20200;-46
2021/12/20 12:20:53;;;;;;;8.67;1.83;;;4.20;99.90;;;;;;5053969;28;20204;-47
2021/12/20 12:23:22;;;;;;;11.53;2.40;;;4.30;99.90;;;;;;5041572;28;20252;-47
2021/12/20 12:25:52;;;;;;;10.67;2.27;;;4.30;99.90;;;;;;5070657;28;20227;-47
2021/12/20 12:28:22;;;;;;;6.30;2.07;;;4.30;99.90;;;;;;5064924;28;20294;-47
2021/12/20 12:31:00;;;;;;;9.43;2.60;;;4.30;99.90;;;;;;5069560;28;20222;-48
2021/12/20 12:33:31;;;;;;;8.70;2.30;;;4.30;99.90;;;;;;5076723;28;20233;-46
2021/12/20 12:36:05;;;;;;;9.50;2.30;;;4.40;99.90;;;;;;5064247;28;20228;-46
2021/12/20 12:38:36;;;;;;;8.93;2.67;;;4.40;99.90;;;;;;5080447;28;20191;-47
2021/12/20 12:41:25;;;;;;;11.17;2.80;;;4.40;99.90;;;;;;5076787;28;20784;-47
2021/12/20 12:43:56;;;;;;;7.90;2.63;;;4.40;99.90;;;;;;5079237;28;20204;-47
2021/12/20 12:46:46;;;;;;;5.67;2.60;;;4.40;99.90;;;;;;5060289;28;20215;-47
2021/12/20 12:49:34;;;;;;;7.00;2.90;;;4.30;99.90;;;;;;5081676;28;20200;-47
2021/12/20 12:52:05;;;;;;;11.87;2.47;;;4.40;99.90;;;;;;5063792;28;20373;-47
2021/12/20 12:54:37;;;;;;;9.77;3.03;;;4.40;99.90;;;;;;5077233;27;20223;-47
2021/12/20 12:57:32;;;;;;;8.47;2.23;;;4.40;99.90;;;;;;5066083;28;20912;-46
2021/12/20 13:00:22;;;;;;;7.27;2.00;;;4.40;99.90;;;;;;5080420;28;20724;-47
2021/12/20 13:02:51;;;;;;;9.50;2.00;;;4.40;99.90;;;;;;5060591;28;20206;-47
2021/12/20 13:05:22;;;;;;;9.73;2.00;;;4.40;99.90;;;;;;5061745;28;20223;-46
2021/12/20 13:07:53;;;;;;;4.33;1.70;;;4.50;99.90;;;;;;5069047;28;20207;-47
2021/12/20 13:10:28;;;;;;;13.40;2.67;;;4.50;99.90;;;;;;5068276;28;20268;-46
2021/12/20 13:13:01;;;;;;;6.63;2.30;;;4.60;99.90;;;;;;5072236;28;20221;-47
2021/12/20 13:15:33;;;;;;;10.87;2.50;;;4.60;99.90;;;;;;5052885;28;20226;-47